createdAt,value
2023-04-03T00:05:17.295Z,78.55
2023-04-03T00:10:39.998Z,78.64
2023-04-03T00:16:03.320Z,78.75
2023-04-03T00:21:27.916Z,78.87
2023-04-03T00:26:50.261Z,78.89
2023-04-03T00:32:12.486Z,78.81
2023-04-03T00:37:34.717Z,78.97
2023-04-03T00:43:00.786Z,79.15
2023-04-03T00:48:28.708Z,79.37
2023-04-03T00:54:05.585Z,79.46
2023-04-03T00:59:31.905Z,79.60
2023-04-03T01:04:56.941Z,79.75
2023-04-03T01:10:23.088Z,79.79
2023-04-03T01:15:46.615Z,79.77
2023-04-03T01:21:46.744Z,79.84
2023-04-03T01:27:12.320Z,79.91
2023-04-03T01:32:34.793Z,80.02
2023-04-03T01:37:57.300Z,80.18
2023-04-03T01:43:19.668Z,80.43
2023-04-03T01:48:41.918Z,80.61
2023-04-03T01:54:04.683Z,80.77
2023-04-03T01:59:27.343Z,80.76
2023-04-03T02:04:49.568Z,80.80
2023-04-03T02:10:12.105Z,80.90
2023-04-03T02:15:34.411Z,80.97
2023-04-03T02:20:56.755Z,80.99
2023-04-03T02:26:25.237Z,81.14
2023-04-03T02:31:47.893Z,81.39
2023-04-03T02:37:10.162Z,81.45
2023-04-03T02:42:32.878Z,81.57
2023-04-03T02:47:55.673Z,81.73
2023-04-03T02:53:17.964Z,82.01
2023-04-03T02:58:40.592Z,82.19
2023-04-03T03:04:02.969Z,82.29
2023-04-03T03:09:27.328Z,82.32
2023-04-03T03:14:49.671Z,82.31
2023-04-03T03:20:12.651Z,82.25
2023-04-03T03:25:35.283Z,82.24
2023-04-03T03:30:57.963Z,82.08
2023-04-03T03:36:21.047Z,82.02
2023-04-03T03:41:43.324Z,82.03
2023-04-03T03:47:07.354Z,82.01
2023-04-03T03:52:31.432Z,82.16
2023-04-03T03:57:53.667Z,82.27
2023-04-03T04:03:16.483Z,82.48
2023-04-03T04:08:39.068Z,82.71
2023-04-03T04:14:01.355Z,82.96
2023-04-03T04:19:23.674Z,83.02
2023-04-03T04:24:45.985Z,83.03
2023-04-03T04:30:08.211Z,83.11
2023-04-03T04:35:30.646Z,83.17
2023-04-03T04:40:53.164Z,83.16
2023-04-03T04:46:26.298Z,83.12
2023-04-03T04:51:52.331Z,82.94
2023-04-03T04:57:12.845Z,82.57
2023-04-03T05:02:35.209Z,81.90
2023-04-03T05:07:57.694Z,81.11
2023-04-03T05:13:20.107Z,80.34
2023-04-03T05:18:42.391Z,79.65
2023-04-03T05:24:04.748Z,78.99
2023-04-03T05:29:28.201Z,78.36
2023-04-03T05:34:50.532Z,77.72
2023-04-03T05:40:14.294Z,77.33
2023-04-03T05:45:36.639Z,77.17
2023-04-03T05:50:59.673Z,77.12
2023-04-03T05:56:22.250Z,76.70
2023-04-03T06:01:44.570Z,75.77
2023-04-03T06:07:09.764Z,74.75
2023-04-03T06:12:32.587Z,73.51
2023-04-03T06:17:54.854Z,72.46
2023-04-03T06:23:17.940Z,71.70
2023-04-03T06:28:40.535Z,70.78
2023-04-03T06:34:03.196Z,69.71
2023-04-03T06:39:30.899Z,68.74
2023-04-03T06:44:53.343Z,67.97
2023-04-03T06:50:16.997Z,67.00
2023-04-03T06:55:40.329Z,66.42
2023-04-03T07:01:02.901Z,65.84
2023-04-03T07:06:28.348Z,65.64
2023-04-03T07:11:51.289Z,65.41
2023-04-03T07:17:13.643Z,64.49
2023-04-03T07:22:36.302Z,63.08
2023-04-03T07:27:59.973Z,61.95
2023-04-03T07:33:23.297Z,58.11
2023-04-03T07:38:46.218Z,55.20
2023-04-03T07:44:10.352Z,53.08
2023-04-03T07:49:34.416Z,50.48
2023-04-03T07:54:56.849Z,50.27
2023-04-03T08:00:21.023Z,48.82
2023-04-03T08:05:47.187Z,48.23
2023-04-03T08:11:11.938Z,48.73
2023-04-03T08:16:38.806Z,47.79
2023-04-03T08:22:04.207Z,47.69
2023-04-03T08:27:28.354Z,46.69
2023-04-03T08:32:51.185Z,46.54
2023-04-03T08:38:13.812Z,46.29
2023-04-03T08:43:47.066Z,45.75
2023-04-03T08:49:12.045Z,45.42
2023-04-03T08:54:38.408Z,45.42
2023-04-03T09:00:00.962Z,46.24
2023-04-03T09:05:27.765Z,45.92
2023-04-03T09:10:53.367Z,45.80
2023-04-03T09:16:25.976Z,45.87
2023-04-03T09:21:51.456Z,45.64
2023-04-03T09:27:17.810Z,45.26
2023-04-03T09:32:48.873Z,45.12
2023-04-03T09:38:27.835Z,42.92
2023-04-03T09:43:54.015Z,43.40
2023-04-03T09:49:23.075Z,42.52
2023-04-03T09:54:49.040Z,43.70
2023-04-03T10:00:28.856Z,45.39
2023-04-03T10:05:56.611Z,44.65
2023-04-03T10:11:32.627Z,45.63
2023-04-03T10:17:04.836Z,45.83
2023-04-03T10:22:46.919Z,44.93
2023-04-03T10:28:34.600Z,45.70
2023-04-03T10:34:31.695Z,43.82
2023-04-03T10:40:13.934Z,43.20
2023-04-03T10:45:57.413Z,41.24
2023-04-03T10:51:39.872Z,41.90
2023-04-03T10:57:24.266Z,42.62
2023-04-03T11:03:02.650Z,42.09
2023-04-03T11:08:48.076Z,42.22
2023-04-03T11:14:39.213Z,44.13
2023-04-03T11:20:26.224Z,43.55
2023-04-03T11:25:51.304Z,43.19
2023-04-03T11:31:34.964Z,40.19
2023-04-03T11:37:05.522Z,40.65
2023-04-03T11:42:42.489Z,37.33
2023-04-03T11:48:23.297Z,40.02
2023-04-03T11:53:46.301Z,40.27
2023-04-03T11:59:30.620Z,41.36
2023-04-03T12:04:56.377Z,42.39
2023-04-03T12:10:32.106Z,39.55
2023-04-03T12:15:59.971Z,38.14
2023-04-03T12:21:39.049Z,41.80
2023-04-03T12:27:16.023Z,42.31
2023-04-03T12:33:14.707Z,40.24
2023-04-03T12:39:04.882Z,35.44
2023-04-03T12:44:47.206Z,38.24
2023-04-03T12:50:12.084Z,41.27
2023-04-03T12:55:36.253Z,41.32
2023-04-03T13:01:00.714Z,38.65
2023-04-03T13:06:50.215Z,37.64
2023-04-03T13:12:31.865Z,38.24
2023-04-03T13:17:56.099Z,40.08
2023-04-03T13:23:30.904Z,40.95
2023-04-03T13:28:54.913Z,41.83
2023-04-03T13:34:30.288Z,42.47
2023-04-03T13:39:56.170Z,41.64
2023-04-03T13:45:42.409Z,38.95
2023-04-03T13:51:18.173Z,41.97
2023-04-03T13:56:47.897Z,45.25
2023-04-03T14:02:21.713Z,46.23
2023-04-03T14:07:44.954Z,42.78
2023-04-03T14:13:07.457Z,40.44
2023-04-03T14:18:33.311Z,40.45
2023-04-03T14:23:55.883Z,41.87
2023-04-03T14:29:18.825Z,43.84
2023-04-03T14:34:44.352Z,45.30
2023-04-03T14:40:08.427Z,43.73
2023-04-03T14:45:32.231Z,41.38
2023-04-03T14:51:05.345Z,38.12
2023-04-03T14:56:25.467Z,34.44
2023-04-03T15:01:52.656Z,37.48
2023-04-03T15:07:16.408Z,39.10
2023-04-03T15:12:39.620Z,37.26
2023-04-03T15:18:07.035Z,36.65
2023-04-03T15:23:31.773Z,41.45
2023-04-03T15:28:56.501Z,39.88
2023-04-03T15:34:19.034Z,35.47
2023-04-03T15:39:41.634Z,36.17
2023-04-03T15:45:03.957Z,38.87
2023-04-03T15:50:26.777Z,41.23
2023-04-03T15:55:51.403Z,42.96
2023-04-03T16:01:13.964Z,41.87
2023-04-03T16:06:38.780Z,41.46
2023-04-03T16:12:01.781Z,40.08
2023-04-03T16:17:24.890Z,38.85
2023-04-03T16:22:49.834Z,37.84
2023-04-03T16:28:13.252Z,37.39
2023-04-03T16:33:36.534Z,40.96
2023-04-03T16:38:58.985Z,46.37
2023-04-03T16:44:23.025Z,48.07
2023-04-03T16:49:45.471Z,48.74
2023-04-03T16:55:07.815Z,50.26
2023-04-03T17:00:30.536Z,51.61
2023-04-03T17:05:55.755Z,52.38
2023-04-03T17:11:18.191Z,53.50
2023-04-03T17:16:41.656Z,54.76
2023-04-03T17:22:05.230Z,55.87
2023-04-03T17:27:27.728Z,56.77
2023-04-03T17:32:50.154Z,57.79
2023-04-03T17:38:12.470Z,58.87
2023-04-03T17:43:35.061Z,59.10
2023-04-03T17:49:02.680Z,58.11
2023-04-03T17:54:25.421Z,57.89
2023-04-03T17:59:47.747Z,58.18
2023-04-03T18:05:11.886Z,58.75
2023-04-03T18:10:35.015Z,59.42
2023-04-03T18:15:57.895Z,60.20
2023-04-03T18:21:22.573Z,60.80
2023-04-03T18:26:47.184Z,60.82
2023-04-03T18:32:11.537Z,60.49
2023-04-03T18:37:34.409Z,59.89
2023-04-03T18:42:58.053Z,59.42
2023-04-03T18:48:21.742Z,59.20
2023-04-03T18:53:44.350Z,58.81
2023-04-03T18:59:07.100Z,58.10
2023-04-03T19:04:30.162Z,56.74
2023-04-03T19:09:53.465Z,55.52
2023-04-03T19:15:16.254Z,54.56
2023-04-03T19:20:39.136Z,54.22
2023-04-03T19:26:07.685Z,54.24
2023-04-03T19:31:35.388Z,54.53
2023-04-03T19:36:57.794Z,54.65
2023-04-03T19:42:21.299Z,54.73
2023-04-03T19:47:45.334Z,55.11
2023-04-03T19:53:09.258Z,55.17
2023-04-03T19:58:32.303Z,55.59
2023-04-03T20:03:54.625Z,55.66
2023-04-03T20:09:18.578Z,55.31
2023-04-03T20:14:41.988Z,54.99
2023-04-03T20:20:04.756Z,55.29
2023-04-03T20:25:48.060Z,55.23
2023-04-03T20:30:54.748Z,55.00
2023-04-03T20:36:17.223Z,55.24
2023-04-03T20:41:39.727Z,55.82
2023-04-03T20:47:02.014Z,56.33
2023-04-03T20:52:24.353Z,56.73
2023-04-03T20:57:54.397Z,56.92
2023-04-03T21:03:12.857Z,57.10
2023-04-03T21:09:30.397Z,57.45
2023-04-03T21:15:48.202Z,57.80
2023-04-03T21:21:10.508Z,57.95
2023-04-03T21:26:34.288Z,57.89
2023-04-03T21:32:11.284Z,58.09
2023-04-03T21:37:34.096Z,58.31
2023-04-03T21:42:58.625Z,58.88
2023-04-03T21:48:21.979Z,59.32
2023-04-03T21:53:46.095Z,59.66
2023-04-03T21:59:08.577Z,60.29
2023-04-03T22:04:31.089Z,60.82
2023-04-03T22:09:53.788Z,61.47
2023-04-03T22:15:16.897Z,62.03
2023-04-03T22:20:39.314Z,62.58
2023-04-03T22:26:22.036Z,62.89
2023-04-03T22:31:44.300Z,63.46
2023-04-03T22:37:06.749Z,63.73
2023-04-03T22:42:30.282Z,64.41
2023-04-03T22:47:53.218Z,65.13
2023-04-03T22:53:15.966Z,65.35
2023-04-03T22:58:38.261Z,65.01
2023-04-03T23:04:01.182Z,64.73
2023-04-03T23:09:23.615Z,64.54
2023-04-03T23:14:45.988Z,64.40
2023-04-03T23:20:08.242Z,64.32
2023-04-03T23:25:31.278Z,64.00
2023-04-03T23:30:54.472Z,63.83
2023-04-03T23:36:21.365Z,63.74
2023-04-03T23:41:44.548Z,63.70
2023-04-03T23:47:06.954Z,63.73
2023-04-03T23:52:30.846Z,63.69
2023-04-03T23:57:55.832Z,63.63
